Jetmore, Kansas
Current Conditions -  °F | °C
As of 4:34 AM on Sunday 21 Dec 2014 (Local Time) from KDDC Reporting Station
Haze Haze  
Wind Chill: 27°   Ceiling: 200
Heat Index: 37°   Visibility: 2mi
Dew Point: 36°   Wind: 17mph
Humidity: 96%   Direction: 190°S
Pressure: 29.91"   Gusts: NA
Location:  38.08°N, 99.89°W
Report Text: KDDC 211034Z AUTO 19015KT 2SM BR OVC002 03/02 A2991 RMK AO2 T00280022
Loading
Personal Weather Stations






























Interactive Weather Map New forecast layout! Learn more

10-Day Weather Forecast

Advertisements
Track Severe Weather on mobile